sensor_id;sensor_type;location;lat;lon;timestamp;temperature;humidity
11025;DHT22;22890;51.820;8.682;2023-07-20T00:02:04;17.20;99.90
11025;DHT22;22890;51.820;8.682;2023-07-20T00:04:32;17.20;99.90
11025;DHT22;22890;51.820;8.682;2023-07-20T00:06:59;17.20;99.90
11025;DHT22;22890;51.820;8.682;2023-07-20T00:09:28;17.20;99.90
11025;DHT22;22890;51.820;8.682;2023-07-20T00:11:54;17.20;99.90
11025;DHT22;22890;51.820;8.682;2023-07-20T00:14:22;17.20;99.90
11025;DHT22;22890;51.820;8.682;2023-07-20T00:16:50;17.20;99.90
11025;DHT22;22890;51.820;8.682;2023-07-20T00:19:26;17.30;99.90
11025;DHT22;22890;51.820;8.682;2023-07-20T00:21:54;19.40;99.90
11025;DHT22;22890;51.820;8.682;2023-07-20T00:24:21;17.30;99.90
11025;DHT22;22890;51.820;8.682;2023-07-20T00:26:48;17.30;99.90
11025;DHT22;22890;51.820;8.682;2023-07-20T00:29:16;17.20;99.90
11025;DHT22;22890;51.820;8.682;2023-07-20T00:31:42;17.20;99.90
11025;DHT22;22890;51.820;8.682;2023-07-20T00:34:10;17.20;99.90
11025;DHT22;22890;51.820;8.682;2023-07-20T00:36:37;17.30;99.90
11025;DHT22;22890;51.820;8.682;2023-07-20T00:39:04;17.20;99.90
11025;DHT22;22890;51.820;8.682;2023-07-20T00:41:31;17.20;99.90
11025;DHT22;22890;51.820;8.682;2023-07-20T00:43:59;17.20;99.90
11025;DHT22;22890;51.820;8.682;2023-07-20T00:46:26;17.20;99.90
11025;DHT22;22890;51.820;8.682;2023-07-20T00:48:54;17.20;99.90
11025;DHT22;22890;51.820;8.682;2023-07-20T00:51:21;17.20;99.90
11025;DHT22;22890;51.820;8.682;2023-07-20T00:53:49;17.20;99.90
11025;DHT22;22890;51.820;8.682;2023-07-20T00:56:16;17.10;99.90
11025;DHT22;22890;51.820;8.682;2023-07-20T00:58:43;17.10;99.90
11025;DHT22;22890;51.820;8.682;2023-07-20T01:01:11;17.10;99.90
11025;DHT22;22890;51.820;8.682;2023-07-20T01:03:40;17.10;99.90
11025;DHT22;22890;51.820;8.682;2023-07-20T01:06:19;17.10;99.90
11025;DHT22;22890;51.820;8.682;2023-07-20T01:09:08;17.10;99.90
11025;DHT22;22890;51.820;8.682;2023-07-20T01:11:56;17.10;99.90
11025;DHT22;22890;51.820;8.682;2023-07-20T01:14:24;17.10;99.90
11025;DHT22;22890;51.820;8.682;2023-07-20T01:16:52;17.10;99.90
11025;DHT22;22890;51.820;8.682;2023-07-20T01:19:19;17.10;99.90
11025;DHT22;22890;51.820;8.682;2023-07-20T01:22:21;17.00;99.90
11025;DHT22;22890;51.820;8.682;2023-07-20T01:25:09;17.00;99.90
11025;DHT22;22890;51.820;8.682;2023-07-20T01:28:32;17.00;99.90
11025;DHT22;22890;51.820;8.682;2023-07-20T01:33:42;16.80;99.90
11025;DHT22;22890;51.820;8.682;2023-07-20T01:36:10;16.80;99.90
11025;DHT22;22890;51.820;8.682;2023-07-20T01:38:38;16.80;99.90
11025;DHT22;22890;51.820;8.682;2023-07-20T01:41:05;16.80;99.90
11025;DHT22;22890;51.820;8.682;2023-07-20T01:43:32;16.80;99.90
11025;DHT22;22890;51.820;8.682;2023-07-20T01:45:59;16.80;99.90
11025;DHT22;22890;51.820;8.682;2023-07-20T01:48:26;16.80;99.90
11025;DHT22;22890;51.820;8.682;2023-07-20T01:50:53;16.70;99.90
11025;DHT22;22890;51.820;8.682;2023-07-20T01:53:21;16.70;99.90
11025;DHT22;22890;51.820;8.682;2023-07-20T01:55:48;16.70;99.90
11025;DHT22;22890;51.820;8.682;2023-07-20T01:58:15;16.70;99.90
11025;DHT22;22890;51.820;8.682;2023-07-20T02:00:42;16.70;99.90
11025;DHT22;22890;51.820;8.682;2023-07-20T02:03:09;16.60;99.90
11025;DHT22;22890;51.820;8.682;2023-07-20T02:05:35;16.60;99.90
11025;DHT22;22890;51.820;8.682;2023-07-20T02:08:03;16.60;99.90
11025;DHT22;22890;51.820;8.682;2023-07-20T02:10:30;16.60;99.90
11025;DHT22;22890;51.820;8.682;2023-07-20T02:12:57;18.80;99.90
11025;DHT22;22890;51.820;8.682;2023-07-20T02:15:24;16.60;99.90
11025;DHT22;22890;51.820;8.682;2023-07-20T02:17:51;16.50;99.90
11025;DHT22;22890;51.820;8.682;2023-07-20T02:20:17;16.50;99.90
11025;DHT22;22890;51.820;8.682;2023-07-20T02:22:47;16.50;99.90
11025;DHT22;22890;51.820;8.682;2023-07-20T02:25:14;16.50;99.90
11025;DHT22;22890;51.820;8.682;2023-07-20T02:27:41;16.50;99.90
11025;DHT22;22890;51.820;8.682;2023-07-20T02:30:08;16.50;99.90
11025;DHT22;22890;51.820;8.682;2023-07-20T02:32:36;16.50;99.90
11025;DHT22;22890;51.820;8.682;2023-07-20T02:35:03;16.60;99.90
11025;DHT22;22890;51.820;8.682;2023-07-20T02:37:31;16.50;99.90
11025;DHT22;22890;51.820;8.682;2023-07-20T02:39:58;16.50;99.90
11025;DHT22;22890;51.820;8.682;2023-07-20T02:42:24;16.40;99.90
11025;DHT22;22890;51.820;8.682;2023-07-20T02:44:52;16.30;99.90
11025;DHT22;22890;51.820;8.682;2023-07-20T02:47:19;16.20;99.90
11025;DHT22;22890;51.820;8.682;2023-07-20T02:49:46;16.20;99.90
11025;DHT22;22890;51.820;8.682;2023-07-20T02:52:13;17.90;99.90
11025;DHT22;22890;51.820;8.682;2023-07-20T02:54:39;16.20;99.90
11025;DHT22;22890;51.820;8.682;2023-07-20T02:57:06;16.20;99.90
11025;DHT22;22890;51.820;8.682;2023-07-20T02:59:33;16.20;99.90
11025;DHT22;22890;51.820;8.682;2023-07-20T03:02:00;16.20;99.90
11025;DHT22;22890;51.820;8.682;2023-07-20T03:04:27;16.20;99.90
11025;DHT22;22890;51.820;8.682;2023-07-20T03:06:54;16.20;99.90
11025;DHT22;22890;51.820;8.682;2023-07-20T03:09:21;16.20;99.90
11025;DHT22;22890;51.820;8.682;2023-07-20T03:11:50;16.10;99.90
11025;DHT22;22890;51.820;8.682;2023-07-20T03:14:17;16.10;99.90
11025;DHT22;22890;51.820;8.682;2023-07-20T03:16:44;16.10;99.90
11025;DHT22;22890;51.820;8.682;2023-07-20T03:19:12;16.10;99.90
11025;DHT22;22890;51.820;8.682;2023-07-20T03:21:40;16.20;99.90
11025;DHT22;22890;51.820;8.682;2023-07-20T03:24:08;16.10;99.90
11025;DHT22;22890;51.820;8.682;2023-07-20T03:26:35;16.10;99.90
11025;DHT22;22890;51.820;8.682;2023-07-20T03:29:04;16.10;99.90
11025;DHT22;22890;51.820;8.682;2023-07-20T03:31:32;16.20;99.90
11025;DHT22;22890;51.820;8.682;2023-07-20T03:33:59;16.10;99.90
11025;DHT22;22890;51.820;8.682;2023-07-20T03:36:26;16.10;99.90
11025;DHT22;22890;51.820;8.682;2023-07-20T03:38:53;16.10;99.90
11025;DHT22;22890;51.820;8.682;2023-07-20T03:41:19;16.10;99.90
11025;DHT22;22890;51.820;8.682;2023-07-20T03:43:48;16.10;99.90
11025;DHT22;22890;51.820;8.682;2023-07-20T03:46:15;16.00;99.90
11025;DHT22;22890;51.820;8.682;2023-07-20T03:48:42;16.00;99.90
11025;DHT22;22890;51.820;8.682;2023-07-20T03:51:09;16.00;99.90
11025;DHT22;22890;51.820;8.682;2023-07-20T03:53:36;16.00;99.90
11025;DHT22;22890;51.820;8.682;2023-07-20T03:56:03;16.00;99.90
11025;DHT22;22890;51.820;8.682;2023-07-20T03:58:29;16.00;99.90
11025;DHT22;22890;51.820;8.682;2023-07-20T04:00:57;16.00;99.90
11025;DHT22;22890;51.820;8.682;2023-07-20T04:03:24;16.00;99.90
11025;DHT22;22890;51.820;8.682;2023-07-20T04:05:54;16.00;99.90
11025;DHT22;22890;51.820;8.682;2023-07-20T04:08:23;16.00;99.90
11025;DHT22;22890;51.820;8.682;2023-07-20T04:10:51;16.00;99.90
11025;DHT22;22890;51.820;8.682;2023-07-20T04:13:18;16.00;99.90
11025;DHT22;22890;51.820;8.682;2023-07-20T04:15:45;16.00;99.90
11025;DHT22;22890;51.820;8.682;2023-07-20T04:18:12;16.00;99.90
11025;DHT22;22890;51.820;8.682;2023-07-20T04:20:39;16.00;99.90
11025;DHT22;22890;51.820;8.682;2023-07-20T04:23:06;16.00;99.90
11025;DHT22;22890;51.820;8.682;2023-07-20T04:25:33;16.00;99.90
11025;DHT22;22890;51.820;8.682;2023-07-20T04:28:07;16.00;99.90
11025;DHT22;22890;51.820;8.682;2023-07-20T04:30:42;16.00;99.90
11025;DHT22;22890;51.820;8.682;2023-07-20T04:33:09;16.00;99.90
11025;DHT22;22890;51.820;8.682;2023-07-20T04:35:53;16.00;99.90
11025;DHT22;22890;51.820;8.682;2023-07-20T04:38:25;16.10;99.90
11025;DHT22;22890;51.820;8.682;2023-07-20T04:41:16;16.10;99.90
11025;DHT22;22890;51.820;8.682;2023-07-20T04:43:46;16.10;99.90
11025;DHT22;22890;51.820;8.682;2023-07-20T04:46:16;16.10;99.90
11025;DHT22;22890;51.820;8.682;2023-07-20T04:48:46;16.20;99.90
11025;DHT22;22890;51.820;8.682;2023-07-20T04:51:14;16.20;99.90
11025;DHT22;22890;51.820;8.682;2023-07-20T04:53:41;16.20;99.90
11025;DHT22;22890;51.820;8.682;2023-07-20T04:56:09;16.20;99.90
11025;DHT22;22890;51.820;8.682;2023-07-20T04:58:37;16.20;99.90
11025;DHT22;22890;51.820;8.682;2023-07-20T05:01:04;16.20;99.90
11025;DHT22;22890;51.820;8.682;2023-07-20T05:03:32;16.20;99.90
11025;DHT22;22890;51.820;8.682;2023-07-20T05:05:59;16.20;99.90
11025;DHT22;22890;51.820;8.682;2023-07-20T05:08:27;16.20;99.90
11025;DHT22;22890;51.820;8.682;2023-07-20T05:10:54;17.60;99.90
11025;DHT22;22890;51.820;8.682;2023-07-20T05:13:20;17.30;99.90
11025;DHT22;22890;51.820;8.682;2023-07-20T05:15:51;16.20;99.90
11025;DHT22;22890;51.820;8.682;2023-07-20T05:18:19;16.20;99.90
11025;DHT22;22890;51.820;8.682;2023-07-20T05:20:49;16.20;99.90
11025;DHT22;22890;51.820;8.682;2023-07-20T05:23:17;16.10;99.90
11025;DHT22;22890;51.820;8.682;2023-07-20T05:25:44;16.10;99.90
11025;DHT22;22890;51.820;8.682;2023-07-20T05:28:11;16.10;99.90
11025;DHT22;22890;51.820;8.682;2023-07-20T05:30:38;16.10;99.90
11025;DHT22;22890;51.820;8.682;2023-07-20T05:33:06;16.10;99.90
11025;DHT22;22890;51.820;8.682;2023-07-20T05:35:33;16.20;99.90
11025;DHT22;22890;51.820;8.682;2023-07-20T05:37:59;16.00;99.90
11025;DHT22;22890;51.820;8.682;2023-07-20T05:40:26;16.00;99.90
11025;DHT22;22890;51.820;8.682;2023-07-20T05:42:56;16.00;99.90
11025;DHT22;22890;51.820;8.682;2023-07-20T05:45:23;16.00;99.90
11025;DHT22;22890;51.820;8.682;2023-07-20T05:47:50;16.00;99.90
11025;DHT22;22890;51.820;8.682;2023-07-20T05:50:17;15.90;99.90
11025;DHT22;22890;51.820;8.682;2023-07-20T05:52:43;15.90;99.90
11025;DHT22;22890;51.820;8.682;2023-07-20T05:55:11;15.90;99.90
11025;DHT22;22890;51.820;8.682;2023-07-20T05:57:37;15.90;99.90
11025;DHT22;22890;51.820;8.682;2023-07-20T06:00:09;15.90;99.90
11025;DHT22;22890;51.820;8.682;2023-07-20T06:02:41;15.90;99.90
11025;DHT22;22890;51.820;8.682;2023-07-20T06:05:08;16.00;99.90
11025;DHT22;22890;51.820;8.682;2023-07-20T06:07:38;16.00;99.90
11025;DHT22;22890;51.820;8.682;2023-07-20T06:10:05;16.20;99.90
11025;DHT22;22890;51.820;8.682;2023-07-20T06:12:32;16.30;99.90
11025;DHT22;22890;51.820;8.682;2023-07-20T06:15:04;16.30;99.90
11025;DHT22;22890;51.820;8.682;2023-07-20T06:17:31;16.40;99.90
11025;DHT22;22890;51.820;8.682;2023-07-20T06:19:58;16.50;99.90
11025;DHT22;22890;51.820;8.682;2023-07-20T06:22:25;16.60;99.90
11025;DHT22;22890;51.820;8.682;2023-07-20T06:24:51;16.60;99.90
11025;DHT22;22890;51.820;8.682;2023-07-20T06:27:18;16.60;99.90
11025;DHT22;22890;51.820;8.682;2023-07-20T06:29:45;16.60;99.90
11025;DHT22;22890;51.820;8.682;2023-07-20T06:32:12;16.70;99.90
11025;DHT22;22890;51.820;8.682;2023-07-20T06:34:40;16.70;99.90
11025;DHT22;22890;51.820;8.682;2023-07-20T06:37:07;16.70;99.90
11025;DHT22;22890;51.820;8.682;2023-07-20T06:39:33;16.70;99.90
11025;DHT22;22890;51.820;8.682;2023-07-20T06:42:03;16.80;99.90
11025;DHT22;22890;51.820;8.682;2023-07-20T06:44:30;16.80;99.90
11025;DHT22;22890;51.820;8.682;2023-07-20T06:46:57;16.80;99.90
11025;DHT22;22890;51.820;8.682;2023-07-20T06:49:28;16.80;99.90
11025;DHT22;22890;51.820;8.682;2023-07-20T06:51:55;16.90;99.90
11025;DHT22;22890;51.820;8.682;2023-07-20T06:54:22;16.80;99.90
11025;DHT22;22890;51.820;8.682;2023-07-20T06:56:50;16.90;99.90
11025;DHT22;22890;51.820;8.682;2023-07-20T06:59:36;16.80;99.90
11025;DHT22;22890;51.820;8.682;2023-07-20T07:02:07;16.70;99.90
11025;DHT22;22890;51.820;8.682;2023-07-20T07:04:41;16.60;99.90
11025;DHT22;22890;51.820;8.682;2023-07-20T07:07:08;16.50;99.90
11025;DHT22;22890;51.820;8.682;2023-07-20T07:09:36;16.60;99.90
11025;DHT22;22890;51.820;8.682;2023-07-20T07:12:04;16.60;99.90
11025;DHT22;22890;51.820;8.682;2023-07-20T07:14:31;16.70;99.90
11025;DHT22;22890;51.820;8.682;2023-07-20T07:16:59;16.70;99.90
11025;DHT22;22890;51.820;8.682;2023-07-20T07:19:30;16.80;99.90
11025;DHT22;22890;51.820;8.682;2023-07-20T07:21:57;16.90;99.90
11025;DHT22;22890;51.820;8.682;2023-07-20T07:24:26;17.00;99.90
11025;DHT22;22890;51.820;8.682;2023-07-20T07:26:55;17.10;99.90
11025;DHT22;22890;51.820;8.682;2023-07-20T07:29:22;17.10;99.90
11025;DHT22;22890;51.820;8.682;2023-07-20T07:31:49;17.10;99.90
11025;DHT22;22890;51.820;8.682;2023-07-20T07:34:15;17.10;99.90
11025;DHT22;22890;51.820;8.682;2023-07-20T07:36:43;17.20;99.90
11025;DHT22;22890;51.820;8.682;2023-07-20T07:39:10;17.20;99.90
11025;DHT22;22890;51.820;8.682;2023-07-20T07:41:39;17.20;99.90
11025;DHT22;22890;51.820;8.682;2023-07-20T07:44:06;17.20;99.90
11025;DHT22;22890;51.820;8.682;2023-07-20T07:46:33;17.30;99.90
11025;DHT22;22890;51.820;8.682;2023-07-20T07:49:00;17.30;99.90
11025;DHT22;22890;51.820;8.682;2023-07-20T07:51:27;17.30;99.90
11025;DHT22;22890;51.820;8.682;2023-07-20T07:53:54;17.30;99.90
11025;DHT22;22890;51.820;8.682;2023-07-20T07:56:21;17.30;99.90
11025;DHT22;22890;51.820;8.682;2023-07-20T07:58:50;17.40;99.90
11025;DHT22;22890;51.820;8.682;2023-07-20T08:01:20;17.40;99.90
11025;DHT22;22890;51.820;8.682;2023-07-20T08:03:48;17.60;99.90
11025;DHT22;22890;51.820;8.682;2023-07-20T08:06:15;17.60;99.90
11025;DHT22;22890;51.820;8.682;2023-07-20T08:08:42;17.70;99.90
11025;DHT22;22890;51.820;8.682;2023-07-20T08:11:09;17.80;99.90
11025;DHT22;22890;51.820;8.682;2023-07-20T08:13:36;17.90;99.90
11025;DHT22;22890;51.820;8.682;2023-07-20T08:16:03;18.00;99.90
11025;DHT22;22890;51.820;8.682;2023-07-20T08:18:30;18.10;99.90
11025;DHT22;22890;51.820;8.682;2023-07-20T08:20:58;18.10;99.90
11025;DHT22;22890;51.820;8.682;2023-07-20T08:23:24;18.10;99.90
11025;DHT22;22890;51.820;8.682;2023-07-20T08:25:51;18.00;99.90
11025;DHT22;22890;51.820;8.682;2023-07-20T08:28:18;18.00;99.90
11025;DHT22;22890;51.820;8.682;2023-07-20T08:30:47;17.90;99.90
11025;DHT22;22890;51.820;8.682;2023-07-20T08:33:18;17.90;99.90
11025;DHT22;22890;51.820;8.682;2023-07-20T08:35:45;17.90;99.90
11025;DHT22;22890;51.820;8.682;2023-07-20T08:38:13;17.90;99.90
11025;DHT22;22890;51.820;8.682;2023-07-20T08:40:46;17.90;99.90
11025;DHT22;22890;51.820;8.682;2023-07-20T08:43:14;16.70;99.90
11025;DHT22;22890;51.820;8.682;2023-07-20T08:45:45;18.00;99.90
11025;DHT22;22890;51.820;8.682;2023-07-20T08:48:12;18.00;99.90
11025;DHT22;22890;51.820;8.682;2023-07-20T08:50:40;18.20;99.90
11025;DHT22;22890;51.820;8.682;2023-07-20T08:53:08;18.30;99.90
11025;DHT22;22890;51.820;8.682;2023-07-20T08:55:36;18.40;99.90
11025;DHT22;22890;51.820;8.682;2023-07-20T08:58:05;18.50;99.90
11025;DHT22;22890;51.820;8.682;2023-07-20T09:00:35;18.60;99.90
11025;DHT22;22890;51.820;8.682;2023-07-20T09:03:03;18.70;99.90
11025;DHT22;22890;51.820;8.682;2023-07-20T09:05:30;18.60;99.90
11025;DHT22;22890;51.820;8.682;2023-07-20T09:07:59;18.60;99.90
11025;DHT22;22890;51.820;8.682;2023-07-20T09:10:26;18.50;99.90
11025;DHT22;22890;51.820;8.682;2023-07-20T09:12:53;19.80;99.90
11025;DHT22;22890;51.820;8.682;2023-07-20T09:15:22;18.50;99.90
11025;DHT22;22890;51.820;8.682;2023-07-20T09:17:50;18.70;99.90
11025;DHT22;22890;51.820;8.682;2023-07-20T09:20:18;18.90;99.90
11025;DHT22;22890;51.820;8.682;2023-07-20T09:22:51;20.40;99.90
11025;DHT22;22890;51.820;8.682;2023-07-20T09:25:19;19.10;99.90
11025;DHT22;22890;51.820;8.682;2023-07-20T09:27:49;19.20;99.90
11025;DHT22;22890;51.820;8.682;2023-07-20T09:30:18;19.30;99.90
11025;DHT22;22890;51.820;8.682;2023-07-20T09:32:46;19.30;99.90
11025;DHT22;22890;51.820;8.682;2023-07-20T09:35:18;19.30;99.90
11025;DHT22;22890;51.820;8.682;2023-07-20T09:38:01;19.20;99.90
11025;DHT22;22890;51.820;8.682;2023-07-20T09:40:37;19.20;99.90
11025;DHT22;22890;51.820;8.682;2023-07-20T09:43:08;19.20;99.90
11025;DHT22;22890;51.820;8.682;2023-07-20T09:45:42;19.20;99.90
11025;DHT22;22890;51.820;8.682;2023-07-20T09:48:12;19.20;99.90
11025;DHT22;22890;51.820;8.682;2023-07-20T09:50:48;19.30;99.90
11025;DHT22;22890;51.820;8.682;2023-07-20T09:53:17;20.30;99.90
11025;DHT22;22890;51.820;8.682;2023-07-20T09:55:48;19.40;99.90
11025;DHT22;22890;51.820;8.682;2023-07-20T09:58:16;19.40;99.90
11025;DHT22;22890;51.820;8.682;2023-07-20T10:00:44;19.50;99.90
11025;DHT22;22890;51.820;8.682;2023-07-20T10:03:19;19.60;99.90
11025;DHT22;22890;51.820;8.682;2023-07-20T10:06:02;19.70;99.90
11025;DHT22;22890;51.820;8.682;2023-07-20T10:08:39;19.70;99.90
11025;DHT22;22890;51.820;8.682;2023-07-20T10:11:10;19.80;99.90
11025;DHT22;22890;51.820;8.682;2023-07-20T10:13:39;19.90;99.90
11025;DHT22;22890;51.820;8.682;2023-07-20T10:16:12;19.80;99.90
11025;DHT22;22890;51.820;8.682;2023-07-20T10:18:59;19.80;99.90
11025;DHT22;22890;51.820;8.682;2023-07-20T10:21:30;19.90;99.90
11025;DHT22;22890;51.820;8.682;2023-07-20T10:24:01;19.90;99.90
11025;DHT22;22890;51.820;8.682;2023-07-20T10:26:28;20.00;99.90
11025;DHT22;22890;51.820;8.682;2023-07-20T10:28:56;20.00;99.90
11025;DHT22;22890;51.820;8.682;2023-07-20T10:31:24;20.00;99.90
11025;DHT22;22890;51.820;8.682;2023-07-20T10:33:51;20.00;99.90
11025;DHT22;22890;51.820;8.682;2023-07-20T10:36:25;20.00;99.90
11025;DHT22;22890;51.820;8.682;2023-07-20T10:38:57;20.10;99.90
11025;DHT22;22890;51.820;8.682;2023-07-20T10:41:32;20.20;99.90
11025;DHT22;22890;51.820;8.682;2023-07-20T10:44:08;20.30;99.90
11025;DHT22;22890;51.820;8.682;2023-07-20T10:49:07;20.40;99.90
11025;DHT22;22890;51.820;8.682;2023-07-20T10:51:45;20.40;99.90
11025;DHT22;22890;51.820;8.682;2023-07-20T10:56:49;20.50;99.90
11025;DHT22;22890;51.820;8.682;2023-07-20T11:01:55;20.40;99.90
11025;DHT22;22890;51.820;8.682;2023-07-20T11:04:38;20.30;99.90
11025;DHT22;22890;51.820;8.682;2023-07-20T11:07:06;20.30;99.90
11025;DHT22;22890;51.820;8.682;2023-07-20T11:09:35;20.30;99.90
11025;DHT22;22890;51.820;8.682;2023-07-20T11:12:20;20.40;99.90
11025;DHT22;22890;51.820;8.682;2023-07-20T11:14:55;18.90;99.90
11025;DHT22;22890;51.820;8.682;2023-07-20T11:17:30;20.50;99.90
11025;DHT22;22890;51.820;8.682;2023-07-20T11:19:58;20.50;99.90
11025;DHT22;22890;51.820;8.682;2023-07-20T11:22:27;20.60;99.90
11025;DHT22;22890;51.820;8.682;2023-07-20T11:24:58;20.60;99.90
11025;DHT22;22890;51.820;8.682;2023-07-20T11:27:25;20.60;99.90
11025;DHT22;22890;51.820;8.682;2023-07-20T11:29:52;20.70;99.90
11025;DHT22;22890;51.820;8.682;2023-07-20T11:32:22;20.80;99.90
11025;DHT22;22890;51.820;8.682;2023-07-20T11:34:50;20.80;99.90
11025;DHT22;22890;51.820;8.682;2023-07-20T11:37:18;20.90;99.90
11025;DHT22;22890;51.820;8.682;2023-07-20T11:39:45;21.00;99.90
11025;DHT22;22890;51.820;8.682;2023-07-20T11:42:12;21.00;99.90
11025;DHT22;22890;51.820;8.682;2023-07-20T11:44:39;21.00;99.90
11025;DHT22;22890;51.820;8.682;2023-07-20T11:47:10;21.00;99.90
11025;DHT22;22890;51.820;8.682;2023-07-20T11:49:42;21.00;99.90
11025;DHT22;22890;51.820;8.682;2023-07-20T11:52:16;21.10;99.90
11025;DHT22;22890;51.820;8.682;2023-07-20T11:54:44;21.10;99.90
11025;DHT22;22890;51.820;8.682;2023-07-20T11:57:19;21.20;99.90
11025;DHT22;22890;51.820;8.682;2023-07-20T11:59:57;21.20;99.90
11025;DHT22;22890;51.820;8.682;2023-07-20T12:02:26;21.20;99.90
11025;DHT22;22890;51.820;8.682;2023-07-20T12:04:57;21.30;99.90
11025;DHT22;22890;51.820;8.682;2023-07-20T12:07:26;21.10;99.90
11025;DHT22;22890;51.820;8.682;2023-07-20T12:10:07;21.30;99.90
11025;DHT22;22890;51.820;8.682;2023-07-20T12:12:38;21.30;99.90
11025;DHT22;22890;51.820;8.682;2023-07-20T12:15:25;21.40;99.90
11025;DHT22;22890;51.820;8.682;2023-07-20T12:17:58;21.50;99.90
11025;DHT22;22890;51.820;8.682;2023-07-20T12:20:27;21.50;99.90
11025;DHT22;22890;51.820;8.682;2023-07-20T12:23:07;21.50;99.90
11025;DHT22;22890;51.820;8.682;2023-07-20T12:25:46;21.30;99.90
11025;DHT22;22890;51.820;8.682;2023-07-20T12:28:18;21.30;99.90
11025;DHT22;22890;51.820;8.682;2023-07-20T12:30:46;21.30;99.90
11025;DHT22;22890;51.820;8.682;2023-07-20T12:33:13;21.30;99.90
11025;DHT22;22890;51.820;8.682;2023-07-20T12:35:43;21.30;99.90
11025;DHT22;22890;51.820;8.682;2023-07-20T12:38:10;21.30;99.90
11025;DHT22;22890;51.820;8.682;2023-07-20T12:40:37;21.40;99.90
11025;DHT22;22890;51.820;8.682;2023-07-20T12:43:04;21.50;99.90
11025;DHT22;22890;51.820;8.682;2023-07-20T12:45:31;21.50;99.90
11025;DHT22;22890;51.820;8.682;2023-07-20T12:47:58;21.60;99.90
11025;DHT22;22890;51.820;8.682;2023-07-20T12:50:25;21.60;99.90
11025;DHT22;22890;51.820;8.682;2023-07-20T12:52:52;21.60;99.90
11025;DHT22;22890;51.820;8.682;2023-07-20T12:55:18;21.70;99.90
11025;DHT22;22890;51.820;8.682;2023-07-20T12:57:46;21.70;99.90
11025;DHT22;22890;51.820;8.682;2023-07-20T13:00:14;21.80;99.90
11025;DHT22;22890;51.820;8.682;2023-07-20T13:02:41;21.90;99.90
11025;DHT22;22890;51.820;8.682;2023-07-20T13:05:08;21.80;99.80
11025;DHT22;22890;51.820;8.682;2023-07-20T13:07:37;21.90;99.90
11025;DHT22;22890;51.820;8.682;2023-07-20T13:10:08;21.90;99.90
11025;DHT22;22890;51.820;8.682;2023-07-20T13:12:36;21.90;99.90
11025;DHT22;22890;51.820;8.682;2023-07-20T13:15:04;22.00;99.90
11025;DHT22;22890;51.820;8.682;2023-07-20T13:17:35;22.10;99.90
11025;DHT22;22890;51.820;8.682;2023-07-20T13:20:04;22.10;99.90
11025;DHT22;22890;51.820;8.682;2023-07-20T13:22:35;22.20;99.90
11025;DHT22;22890;51.820;8.682;2023-07-20T13:25:02;22.20;99.90
11025;DHT22;22890;51.820;8.682;2023-07-20T13:27:29;22.20;99.70
11025;DHT22;22890;51.820;8.682;2023-07-20T13:29:59;22.20;99.50
11025;DHT22;22890;51.820;8.682;2023-07-20T13:32:29;21.30;98.40
11025;DHT22;22890;51.820;8.682;2023-07-20T13:35:00;22.20;99.70
11025;DHT22;22890;51.820;8.682;2023-07-20T13:37:27;22.20;98.90
11025;DHT22;22890;51.820;8.682;2023-07-20T13:39:55;23.00;99.20
11025;DHT22;22890;51.820;8.682;2023-07-20T13:42:23;22.20;99.30
11025;DHT22;22890;51.820;8.682;2023-07-20T13:44:50;22.30;99.50
11025;DHT22;22890;51.820;8.682;2023-07-20T13:47:16;22.30;99.20
11025;DHT22;22890;51.820;8.682;2023-07-20T13:49:46;22.30;99.40
11025;DHT22;22890;51.820;8.682;2023-07-20T13:52:14;22.40;98.70
11025;DHT22;22890;51.820;8.682;2023-07-20T13:54:44;22.50;98.30
11025;DHT22;22890;51.820;8.682;2023-07-20T13:57:14;22.50;98.10
11025;DHT22;22890;51.820;8.682;2023-07-20T13:59:43;22.50;98.30
11025;DHT22;22890;51.820;8.682;2023-07-20T14:02:10;22.60;98.10
11025;DHT22;22890;51.820;8.682;2023-07-20T14:04:40;22.60;98.10
11025;DHT22;22890;51.820;8.682;2023-07-20T14:07:08;22.70;98.70
11025;DHT22;22890;51.820;8.682;2023-07-20T14:09:36;22.70;98.70
11025;DHT22;22890;51.820;8.682;2023-07-20T14:12:03;22.80;98.30
11025;DHT22;22890;51.820;8.682;2023-07-20T14:14:33;22.80;98.10
11025;DHT22;22890;51.820;8.682;2023-07-20T14:17:00;22.80;97.30
11025;DHT22;22890;51.820;8.682;2023-07-20T14:19:26;22.70;97.40
11025;DHT22;22890;51.820;8.682;2023-07-20T14:21:53;22.80;97.40
11025;DHT22;22890;51.820;8.682;2023-07-20T14:24:21;22.80;97.30
11025;DHT22;22890;51.820;8.682;2023-07-20T14:26:48;22.80;96.30
11025;DHT22;22890;51.820;8.682;2023-07-20T14:29:18;22.70;97.00
11025;DHT22;22890;51.820;8.682;2023-07-20T14:31:45;22.80;97.60
11025;DHT22;22890;51.820;8.682;2023-07-20T14:34:19;22.80;96.20
11025;DHT22;22890;51.820;8.682;2023-07-20T14:36:46;22.90;96.50
11025;DHT22;22890;51.820;8.682;2023-07-20T14:39:12;22.90;96.50
11025;DHT22;22890;51.820;8.682;2023-07-20T14:41:39;22.90;96.70
11025;DHT22;22890;51.820;8.682;2023-07-20T14:44:06;23.00;96.80
11025;DHT22;22890;51.820;8.682;2023-07-20T14:46:33;23.00;96.50
11025;DHT22;22890;51.820;8.682;2023-07-20T14:49:00;23.20;96.20
11025;DHT22;22890;51.820;8.682;2023-07-20T14:51:27;23.10;96.10
11025;DHT22;22890;51.820;8.682;2023-07-20T14:54:01;23.00;95.10
11025;DHT22;22890;51.820;8.682;2023-07-20T14:56:28;23.00;95.70
11025;DHT22;22890;51.820;8.682;2023-07-20T14:58:55;23.00;95.10
11025;DHT22;22890;51.820;8.682;2023-07-20T15:01:24;23.00;95.70
11025;DHT22;22890;51.820;8.682;2023-07-20T15:03:51;23.00;95.80
11025;DHT22;22890;51.820;8.682;2023-07-20T15:06:23;23.10;96.10
11025;DHT22;22890;51.820;8.682;2023-07-20T15:08:52;23.20;96.50
11025;DHT22;22890;51.820;8.682;2023-07-20T15:11:18;23.20;96.40
11025;DHT22;22890;51.820;8.682;2023-07-20T15:13:45;23.20;95.50
11025;DHT22;22890;51.820;8.682;2023-07-20T15:16:12;24.90;95.40
11025;DHT22;22890;51.820;8.682;2023-07-20T15:18:39;23.00;94.70
11025;DHT22;22890;51.820;8.682;2023-07-20T15:21:14;23.00;95.00
11025;DHT22;22890;51.820;8.682;2023-07-20T15:23:42;23.00;95.20
11025;DHT22;22890;51.820;8.682;2023-07-20T15:26:09;23.20;95.50
11025;DHT22;22890;51.820;8.682;2023-07-20T15:28:38;23.20;95.40
11025;DHT22;22890;51.820;8.682;2023-07-20T15:31:05;23.20;95.30
11025;DHT22;22890;51.820;8.682;2023-07-20T15:33:32;23.30;95.00
11025;DHT22;22890;51.820;8.682;2023-07-20T15:35:58;21.20;93.30
11025;DHT22;22890;51.820;8.682;2023-07-20T15:38:25;23.20;94.50
11025;DHT22;22890;51.820;8.682;2023-07-20T15:40:53;23.20;94.70
11025;DHT22;22890;51.820;8.682;2023-07-20T15:43:21;23.30;95.00
11025;DHT22;22890;51.820;8.682;2023-07-20T15:45:48;23.30;94.90
11025;DHT22;22890;51.820;8.682;2023-07-20T15:48:18;23.40;95.00
11025;DHT22;22890;51.820;8.682;2023-07-20T15:50:49;23.30;94.10
11025;DHT22;22890;51.820;8.682;2023-07-20T15:53:16;23.30;94.40